Time;durP1;ratioP1;P1;durP2;ratioP2;P2;SDS_P1;SDS_P2;PMS_P1;PMS_P2;Temp;Humidity;BMP_temperature;BMP_pressure;BME280_temperature;BME280_humidity;BME280_pressure;Samples;Min_cycle;Max_cycle;Signal;HPM_P1;HPM_P2
2022/10/21 00:06:19;;;;;;;1.02;1.00;;;;;;;5.66;64.62;101421.66;18300741;32;20112;-59
2022/10/21 00:16:24;;;;;;;0.68;0.68;;;;;;;5.69;64.09;101424.38;18300852;32;20143;-59
2022/10/21 00:26:27;;;;;;;1.05;1.02;;;;;;;5.55;64.29;101423.00;18300323;32;20120;-59
2022/10/21 00:36:32;;;;;;;1.30;1.25;;;;;;;5.60;63.74;101411.09;18299985;32;20101;-58
2022/10/21 00:46:38;;;;;;;0.77;0.75;;;;;;;5.65;63.28;101403.50;18302085;32;20098;-58
2022/10/21 00:56:44;;;;;;;0.62;0.62;;;;;;;5.54;63.56;101392.75;18301849;32;20133;-58
2022/10/21 01:06:48;;;;;;;0.50;0.50;;;;;;;5.30;64.08;101372.91;18302128;32;20089;-58
2022/10/21 01:16:58;;;;;;;0.43;0.43;;;;;;;5.35;64.03;101379.16;18300572;32;20116;-58
2022/10/21 01:27:26;;;;;;;1.92;1.83;;;;;;;5.50;63.36;101360.66;18301015;32;20113;-58
2022/10/21 01:37:35;;;;;;;0.47;0.47;;;;;;;5.37;64.27;101371.44;18039202;32;20137;-58
2022/10/21 01:47:42;;;;;;;0.55;0.55;;;;;;;5.45;64.12;101359.63;18038609;32;20141;-58
2022/10/21 01:57:50;;;;;;;0.65;0.65;;;;;;;5.29;64.35;101345.28;18045903;32;20126;-58
2022/10/21 02:07:54;;;;;;;0.52;0.52;;;;;;;5.18;64.31;101333.66;18116683;32;20089;-58
2022/10/21 02:18:03;;;;;;;1.25;0.80;;;;;;;5.11;64.27;101333.44;18307576;32;20096;-58
2022/10/21 02:28:06;;;;;;;0.75;0.75;;;;;;;5.03;65.32;101340.09;18307055;32;20461;-59
2022/10/21 02:38:16;;;;;;;0.50;0.50;;;;;;;5.10;64.95;101357.56;18307940;32;20108;-58
2022/10/21 02:48:20;;;;;;;0.60;0.60;;;;;;;5.17;64.08;101347.44;18306797;32;20127;-58
2022/10/21 02:58:24;;;;;;;1.37;1.27;;;;;;;5.08;64.16;101364.41;18306489;32;20160;-58
2022/10/21 03:08:28;;;;;;;0.65;0.65;;;;;;;4.85;65.03;101343.75;18305898;32;20441;-58
2022/10/21 03:18:32;;;;;;;0.82;0.82;;;;;;;4.75;65.53;101338.19;18306067;32;20366;-58
2022/10/21 03:28:35;;;;;;;0.45;0.45;;;;;;;4.93;64.75;101348.31;18305292;32;20450;-58
2022/10/21 03:38:40;;;;;;;0.80;0.80;;;;;;;4.96;64.82;101341.53;18306310;32;20105;-58
2022/10/21 03:48:43;;;;;;;0.55;0.55;;;;;;;4.91;65.32;101340.50;18305510;32;20143;-58
2022/10/21 03:58:47;;;;;;;0.60;0.60;;;;;;;4.76;65.46;101332.19;18304321;32;20101;-58
2022/10/21 04:08:50;;;;;;;0.50;0.50;;;;;;;4.76;65.51;101321.84;18305162;32;20097;-58
2022/10/21 04:18:55;;;;;;;2.20;1.52;;;;;;;4.85;64.18;101312.72;18302799;32;20090;-58
2022/10/21 04:28:58;;;;;;;0.40;0.40;;;;;;;4.62;64.41;101303.22;18303166;32;20112;-58
2022/10/21 04:39:03;;;;;;;0.60;0.60;;;;;;;4.49;65.47;101295.03;18302746;32;20180;-58
2022/10/21 04:49:06;;;;;;;0.50;0.50;;;;;;;4.21;66.38;101291.37;18302133;32;20641;-58
2022/10/21 04:59:10;;;;;;;0.70;0.70;;;;;;;4.74;64.32;101288.13;18299856;32;20097;-59
2022/10/21 05:09:13;;;;;;;0.98;0.98;;;;;;;4.35;66.10;101273.81;18300741;32;20116;-58
2022/10/21 05:19:18;;;;;;;0.50;0.50;;;;;;;4.65;64.72;101270.59;18300442;32;20108;-58
2022/10/21 05:29:21;;;;;;;0.47;0.47;;;;;;;4.58;64.88;101285.00;18303516;32;20097;-58
2022/10/21 05:39:26;;;;;;;0.60;0.60;;;;;;;4.57;65.31;101262.56;18308664;32;20081;-59
2022/10/21 05:49:29;;;;;;;0.52;0.52;;;;;;;4.80;65.28;101264.22;18307866;32;20116;-58
2022/10/21 05:59:34;;;;;;;0.47;0.47;;;;;;;4.94;65.68;101280.22;18307222;32;20402;-58
2022/10/21 06:09:37;;;;;;;0.60;0.60;;;;;;;5.49;65.22;101265.69;18306778;32;20101;-59
2022/10/21 06:19:42;;;;;;;0.60;0.60;;;;;;;5.78;65.86;101303.69;18305749;32;20133;-59
2022/10/21 06:29:50;;;;;;;0.55;0.55;;;;;;;6.35;66.19;101320.16;18305025;32;20141;-58
2022/10/21 06:39:55;;;;;;;0.52;0.52;;;;;;;7.34;67.07;101301.25;18305350;32;20089;-58
2022/10/21 06:50:01;;;;;;;0.40;0.40;;;;;;;8.86;64.47;101309.03;18303269;32;20453;-59
2022/10/21 07:00:07;;;;;;;0.57;0.57;;;;;;;10.12;60.90;101304.16;18298308;32;20137;-59
2022/10/21 07:10:10;;;;;;;0.55;0.55;;;;;;;12.06;56.32;101289.62;18276667;32;20112;-59
2022/10/21 07:20:14;;;;;;;0.40;0.40;;;;;;;13.18;51.65;101274.28;18283509;32;20439;-59
2022/10/21 07:30:18;;;;;;;0.40;0.40;;;;;;;12.64;52.29;101284.63;18302071;32;20093;-59
2022/10/21 07:40:22;;;;;;;2.25;1.52;;;;;;;12.44;51.85;101289.81;18286659;32;20094;-59
2022/10/21 07:50:25;;;;;;;0.40;0.40;;;;;;;11.66;54.04;101286.66;18302122;32;20086;-59
2022/10/21 08:00:30;;;;;;;0.52;0.52;;;;;;;10.57;54.09;101292.56;18302295;32;20093;-59
2022/10/21 08:10:40;;;;;;;0.40;0.40;;;;;;;10.95;54.10;101282.56;18302590;32;20123;-59
2022/10/21 08:20:45;;;;;;;0.50;0.50;;;;;;;11.93;51.95;101243.25;18304188;32;20113;-58
2022/10/21 08:30:48;;;;;;;0.45;0.45;;;;;;;11.12;53.07;101236.56;18301120;32;20102;-59
2022/10/21 08:40:53;;;;;;;0.50;0.50;;;;;;;12.33;51.27;101227.78;18302417;32;20147;-58
2022/10/21 08:50:58;;;;;;;0.32;0.32;;;;;;;12.84;50.80;101216.56;18300393;32;20086;-59
2022/10/21 09:01:05;;;;;;;0.40;0.40;;;;;;;13.41;49.46;101215.72;18300251;32;20473;-59
2022/10/21 09:11:18;;;;;;;0.40;0.40;;;;;;;13.81;48.57;101188.56;18300395;32;20110;-59
2022/10/21 09:21:28;;;;;;;1.77;1.67;;;;;;;13.86;49.25;101180.69;18306954;32;20137;-59
2022/10/21 09:31:31;;;;;;;0.30;0.30;;;;;;;13.93;48.87;101178.91;18267389;32;20093;-59
2022/10/21 09:41:40;;;;;;;0.40;0.40;;;;;;;14.11;49.95;101155.19;18306956;32;20474;-59
2022/10/21 09:51:44;;;;;;;0.30;0.30;;;;;;;13.96;47.83;101145.63;18304850;32;20078;-59
2022/10/21 10:01:49;;;;;;;0.40;0.40;;;;;;;13.85;45.37;101132.56;18300320;32;20113;-59
2022/10/21 10:11:54;;;;;;;0.37;0.37;;;;;;;13.59;46.21;101115.13;18243644;32;20066;-59
2022/10/21 10:22:11;;;;;;;0.25;0.25;;;;;;;14.15;45.84;101100.91;18244193;32;20108;-59
2022/10/21 10:32:15;;;;;;;0.40;0.40;;;;;;;13.26;46.54;101103.84;18243102;32;20348;-59
2022/10/21 10:42:22;;;;;;;0.32;0.32;;;;;;;13.11;46.42;101086.41;18244489;32;20090;-59
2022/10/21 10:52:25;;;;;;;0.40;0.40;;;;;;;13.82;46.76;101060.84;18244374;32;20132;-59
2022/10/21 11:02:36;;;;;;;0.30;0.30;;;;;;;13.92;45.64;101045.91;18242984;32;20113;-59
2022/10/21 11:12:39;;;;;;;0.40;0.40;;;;;;;13.90;44.09;101024.94;18242372;32;20344;-59
2022/10/21 11:22:51;;;;;;;0.40;0.40;;;;;;;14.68;43.00;101013.81;18239175;32;76234;-59
2022/10/21 11:33:03;;;;;;;0.40;0.40;;;;;;;15.21;41.73;101008.91;18240797;32;20086;-59
2022/10/21 11:43:13;;;;;;;;;;;;;;;15.06;40.58;101001.22;18243221;32;20096;-58
2022/10/21 11:53:28;;;;;;;0.65;0.65;;;;;;;13.36;45.27;100981.44;18241865;32;19977;-59
2022/10/21 12:03:47;;;;;;;0.40;0.40;;;;;;;13.94;43.72;100955.81;18241299;32;20450;-59
2022/10/21 12:13:53;;;;;;;0.30;0.30;;;;;;;13.20;46.18;100943.94;18239751;32;20094;-59
2022/10/21 12:24:04;;;;;;;0.40;0.40;;;;;;;13.21;45.13;100932.56;18298312;32;20097;-59
2022/10/21 12:34:09;;;;;;;0.30;0.30;;;;;;;13.92;43.94;100917.31;18281112;32;20469;-59
2022/10/21 12:44:24;;;;;;;0.40;0.40;;;;;;;13.00;44.97;100920.44;18240293;32;20150;-59
2022/10/21 12:54:30;;;;;;;0.40;0.40;;;;;;;13.96;44.15;100909.41;18237341;32;20097;-59
2022/10/21 13:04:50;;;;;;;0.30;0.30;;;;;;;13.54;44.32;100907.09;18238225;32;20098;-59
2022/10/21 13:14:54;;;;;;;0.35;0.35;;;;;;;13.85;44.96;100895.50;18234428;32;20521;-59
2022/10/21 13:25:09;;;;;;;0.40;0.40;;;;;;;14.03;44.17;100878.72;18255608;32;20116;-59
2022/10/21 13:35:32;;;;;;;0.40;0.40;;;;;;;13.94;44.16;100871.81;18296409;32;20184;-59
2022/10/21 13:45:40;;;;;;;0.45;0.45;;;;;;;14.73;42.63;100862.28;18297859;32;20145;-59
2022/10/21 13:55:55;;;;;;;0.45;0.45;;;;;;;14.20;43.33;100859.31;18302862;32;20124;-59
2022/10/21 14:06:00;;;;;;;0.40;0.40;;;;;;;14.49;42.59;100848.50;18307296;32;20417;-59
2022/10/21 14:16:05;;;;;;;0.45;0.45;;;;;;;14.20;43.22;100833.91;18272864;32;20141;-60
2022/10/21 14:26:10;;;;;;;0.35;0.35;;;;;;;14.75;42.44;100826.34;18274764;32;20095;-59
2022/10/21 14:36:17;;;;;;;0.20;0.20;;;;;;;15.45;42.53;100832.38;18303605;32;20165;-59
2022/10/21 14:46:22;;;;;;;0.28;0.28;;;;;;;15.13;42.65;100813.56;18305128;32;20139;-59
2022/10/21 14:56:30;;;;;;;0.30;0.30;;;;;;;15.40;43.56;100814.03;18240192;32;20449;-60
2022/10/21 15:06:34;;;;;;;0.30;0.30;;;;;;;15.52;43.25;100812.97;18295675;32;20114;-60
2022/10/21 15:16:38;;;;;;;0.77;0.77;;;;;;;15.32;43.97;100819.41;18238489;32;20129;-59
2022/10/21 15:26:46;;;;;;;0.47;0.47;;;;;;;15.26;43.93;100793.19;18236631;32;20093;-59
2022/10/21 15:36:50;;;;;;;0.40;0.40;;;;;;;15.00;44.28;100772.56;18237043;32;20376;-60
2022/10/21 15:46:59;;;;;;;0.73;0.57;;;;;;;14.84;45.01;100778.91;18248847;32;20126;-59
2022/10/21 15:57:12;;;;;;;0.30;0.30;;;;;;;14.67;44.92;100786.09;18282742;32;20090;-59
2022/10/21 16:07:20;;;;;;;0.80;0.60;;;;;;;14.43;45.87;100775.03;18184627;32;20114;-59
2022/10/21 16:17:27;;;;;;;0.57;0.57;;;;;;;14.32;45.93;100776.91;18173568;32;20149;-60
2022/10/21 16:27:32;;;;;;;0.52;0.45;;;;;;;14.24;46.12;100788.38;18249878;32;20370;-59
2022/10/21 16:37:54;;;;;;;1.25;1.15;;;;;;;14.06;46.58;100805.19;18301523;32;20126;-59
2022/10/21 16:48:00;;;;;;;0.40;0.40;;;;;;;13.76;47.62;100783.59;18274268;32;20790;-59
2022/10/21 16:58:03;;;;;;;0.30;0.30;;;;;;;13.45;48.36;100789.97;18236738;32;20158;-59
2022/10/21 17:08:08;;;;;;;2.47;2.33;;;;;;;13.62;49.31;100773.25;18235361;32;20090;-59
2022/10/21 17:18:11;;;;;;;0.60;0.60;;;;;;;13.39;49.36;100776.91;18259652;32;20105;-59
2022/10/21 17:28:19;;;;;;;0.70;0.70;;;;;;;13.03;49.16;100794.62;18268658;32;20101;-59
2022/10/21 17:38:22;;;;;;;0.60;0.60;;;;;;;13.15;48.77;100789.28;18295282;32;20435;-59
2022/10/21 17:48:27;;;;;;;0.60;0.60;;;;;;;13.02;49.67;100790.28;18245090;32;20098;-59
2022/10/21 17:58:30;;;;;;;0.60;0.60;;;;;;;13.25;49.16;100784.00;18291231;32;20112;-60
2022/10/21 18:08:35;;;;;;;0.68;0.68;;;;;;;13.44;49.00;100785.63;18306320;32;20433;-59
2022/10/21 18:18:39;;;;;;;0.50;0.50;;;;;;;13.52;48.44;100767.22;18300432;32;20101;-59
2022/10/21 18:28:49;;;;;;;0.40;0.40;;;;;;;13.70;48.21;100760.03;18283710;32;20120;-59
2022/10/21 18:38:52;;;;;;;0.37;0.37;;;;;;;13.80;47.89;100755.59;18241789;32;20443;-59
2022/10/21 18:48:58;;;;;;;0.93;0.93;;;;;;;13.25;48.29;100757.78;18270297;32;20097;-59
2022/10/21 18:59:01;;;;;;;0.62;0.60;;;;;;;13.31;47.81;100723.66;18301459;32;20097;-59
2022/10/21 19:09:10;;;;;;;0.60;0.60;;;;;;;13.90;47.10;100717.88;18303006;32;20141;-60
2022/10/21 19:19:14;;;;;;;0.60;0.60;;;;;;;14.05;47.14;100702.84;18302195;32;20489;-60
2022/10/21 19:29:19;;;;;;;0.60;0.60;;;;;;;13.98;46.91;100696.78;18301982;32;20347;-59
2022/10/21 19:39:23;;;;;;;0.55;0.55;;;;;;;13.71;48.54;100704.09;18300850;32;20101;-59
2022/10/21 19:49:27;;;;;;;0.37;0.37;;;;;;;14.08;47.14;100698.41;18301858;32;20104;-60
2022/10/21 19:59:31;;;;;;;0.30;0.30;;;;;;;14.15;48.01;100686.94;18302571;32;20116;-59
2022/10/21 20:09:35;;;;;;;1.05;0.95;;;;;;;14.21;48.31;100675.50;18301304;32;20456;-59
2022/10/21 20:19:41;;;;;;;0.43;0.43;;;;;;;13.56;49.28;100679.75;18298836;32;20532;-60
2022/10/21 20:29:45;;;;;;;0.50;0.50;;;;;;;14.07;48.71;100666.94;18298944;32;20101;-59
2022/10/21 20:39:48;;;;;;;0.50;0.50;;;;;;;14.18;49.64;100683.44;18297316;32;20224;-59
2022/10/21 20:49:53;;;;;;;0.40;0.40;;;;;;;13.97;50.72;100684.53;18298963;32;20564;-59
2022/10/21 20:59:56;;;;;;;0.80;0.45;;;;;;;13.97;51.46;100680.19;18303173;32;20089;-60
2022/10/21 21:10:01;;;;;;;0.40;0.40;;;;;;;14.04;50.58;100670.47;18306493;32;20112;-59
2022/10/21 21:20:07;;;;;;;0.45;0.45;;;;;;;14.14;50.00;100687.84;18305936;32;20143;-59
2022/10/21 21:30:12;;;;;;;1.08;0.73;;;;;;;13.55;51.37;100678.00;18305455;32;20115;-60
2022/10/21 21:40:15;;;;;;;0.30;0.30;;;;;;;14.05;50.73;100663.47;18305354;32;20445;-59
2022/10/21 21:50:20;;;;;;;0.60;0.60;;;;;;;13.93;52.04;100646.13;18305382;32;20098;-59
2022/10/21 22:00:23;;;;;;;1.37;0.57;;;;;;;14.19;51.27;100653.66;18308081;32;20508;-59
2022/10/21 22:10:28;;;;;;;0.43;0.43;;;;;;;14.19;51.58;100647.56;18306991;32;20111;-59
2022/10/21 22:20:31;;;;;;;0.40;0.40;;;;;;;13.59;52.50;100621.16;18307331;32;20159;-59
2022/10/21 22:30:36;;;;;;;0.40;0.40;;;;;;;14.06;51.92;100636.34;18307344;32;20093;-59
2022/10/21 22:40:39;;;;;;;0.30;0.30;;;;;;;14.19;51.73;100650.19;18306855;32;20105;-59
2022/10/21 22:50:43;;;;;;;0.50;0.50;;;;;;;13.84;52.86;100654.94;18306976;32;20143;-59
2022/10/21 23:00:46;;;;;;;0.32;0.32;;;;;;;13.74;53.71;100639.31;18307227;32;20133;-59
2022/10/21 23:10:51;;;;;;;0.32;0.32;;;;;;;13.35;54.20;100633.59;18306129;32;20119;-59
2022/10/21 23:20:54;;;;;;;3.97;0.62;;;;;;;13.54;53.86;100630.81;18305245;32;20442;-59
2022/10/21 23:31:00;;;;;;;1.15;1.05;;;;;;;13.69;53.40;100621.91;18305244;32;20108;-59
2022/10/21 23:41:03;;;;;;;0.40;0.40;;;;;;;12.75;55.05;100624.50;18306276;32;20461;-59
2022/10/21 23:51:07;;;;;;;0.40;0.40;;;;;;;13.20;53.67;100592.66;18305207;32;20134;-59
